To NAV CANADA Home Page Login to a new session Search on AWWS site Feedback and Comments Disclaimer Vers la page française équivalente Tips FAQ What's new on the site To the Forecasts and Observations / NOTAM section To "File a Flight Plan" website Publications and other links Update of the User's profile FIC Telephone Numbers My Weather Data Folder Route Weather Data Regional Weather Data Local Weather Data To the Forecasts and Observations / NOTAM section
Request Generated 10/18/2017 at 04:00:06 UTC . Weather information available at that time is displayed.


Save this request

METAR/TAF

ESTEVAN REGIONAL/SK    

METAR CYEN 180300Z 20015G20KT 15SM FEW220 15/M03 A2941 RMK CI2 PRESFR
SLP967 DENSITY ALT 3000FT=
METAR CYEN 180200Z 19013G19KT 15SM FEW090 SCT220 15/M03 A2944 RMK
AC1CI2 PRESFR SLP983 DENSITY ALT 3000FT=
METAR CYEN 180100Z 20012G17KT 15SM BKN090 16/M03 A2948 RMK AC7 PRESFR
SLP993 DENSITY ALT 3100FT=

*** REMARK        : Forecast period has ended; this was the last TAF issued
*** REMARQUE : La période de prévision est échue; ceci était le dernier TAF qui a été émis
TAF CYEN 171742Z 1718/1724 24015G30KT P6SM SCT220
RMK NXT FCST WILL BE ISSUED AT 181145Z=

MOOSE JAW/AIR VICE MARSHAL C.M. MCEWEN/SK    

CYMJ - METAR not available

TAF AMD CYMJ 172149Z 1718/1806 FCST CNCLD DUE END OF FLYING PROGRAM
RMK NXT FCST WILL BE ISSUED AT 181115Z=

REGINA INTL/SK    

METAR CYQR 180300Z 20017KT 15SM SCT240 15/M05 A2927 RMK CI4 SLP921
DENSITY ALT 3200FT=
METAR CYQR 180200Z 18012KT 15SM SCT280 13/M06 A2930 RMK CI3 PRESFR
SLP935 DENSITY ALT 2800FT=
METAR CYQR 180100Z 20012KT 15SM FEW120 FEW280 16/M06 A2932 RMK AC1CI1
AC TR PRESFR SLP941 DENSITY ALT 3200FT=

TAF AMD CYQR 180254Z 1802/1824 20015G25KT P6SM FEW250
BECMG 1802/1804 24025G40KT
BECMG 1804/1806 24030G50KT
FM180800 28025G45KT P6SM SCT050 TEMPO 1808/1816 3SM BLDU
FM181600 28025G35KT P6SM SKC
RMK NXT FCST BY 180600Z=

SASKATOON/JOHN G. DIEFENBAKER INTL/SK    

METAR CYXE 180300Z 26031G45KT 3SM FU SCT040 BKN100 18/03 A2906 RMK
SC3AC2 SLP853 DENSITY ALT 3400FT=
SPECI CYXE 180236Z 24045G61KT 3SM FU FEW015 SCT040 BKN130 21/M03
A2904 RMK SC2SC2AC2 SLP843 DENSITY ALT 3800FT=
METAR CYXE 180200Z 21020G27KT 3SM FU FEW040 SCT130 BKN300 21/M05
A2906 RMK SC1AC3CI1 SLP848 DENSITY ALT 3700FT=
METAR CYXE 180100Z 20018G23KT 6SM BLDU FU FEW040 BKN200 20/M06 A2910
RMK SC2CI3 SLP863 DENSITY ALT 3600FT=

TAF AMD CYXE 180257Z 1802/1824 24040G60KT 6SM FU BLDU SCT040 BKN100
TEMPO 1802/1807 2SM -SHRA FU BLDU BKN030 OVC100
FM180700 28030G45KT P6SM SCT030 BKN100 TEMPO 1807/1812 4SM FU
BLDU
FM181200 28022G35KT P6SM SCT100
BECMG 1818/1820 28020KT
RMK NXT FCST BY 180600Z=

YORKTON MUNICIPALITY/SK    (show WxCam)

METAR CYQV 180300Z AUTO 19013G18KT 9SM CLR 15/M02 A2924 RMK SLP911
DENSITY ALT 2800FT=
METAR CYQV 180200Z AUTO 19012G19KT 9SM CLR 16/M01 A2927 RMK SLP923
DENSITY ALT 2900FT=
METAR CYQV 180100Z AUTO 17008KT 9SM CLR 16/00 A2931 RMK SLP937
DENSITY ALT 2700FT=

TAF CYQV 172338Z 1800/1806 21010G20KT P6SM FEW250
BECMG 1802/1804 24020G30KT
RMK FCST BASED ON AUTO OBS. NXT FCST WILL BE ISSUED AT 181145Z=

BRANDON MUNICIPALITY/MB    

METAR CYBR 180300Z 21014KT 15SM FEW250 15/01 A2941 RMK CI2 SLP971
DENSITY ALT 2200FT=
METAR CYBR 180200Z 21013KT 15SM FEW250 15/01 A2945 RMK CI1 SLP987
DENSITY ALT 2200FT=
METAR CYBR 180100Z 23009KT 15SM FEW100 FEW250 14/02 A2949 RMK AC1CI1
SLP003 DENSITY ALT 2100FT=

TAF CYBR 172338Z 1800/1812 24015G25KT P6SM SCT250
BECMG 1807/1809 27025G40KT
RMK NXT FCST BY 180600Z=

PORTAGE LA PRAIRIE/SOUTHPORT/MB    

METAR CYPG 180300Z 18010G16KT 15SM SKC 14/02 A2945 RMK SLP978=
METAR CYPG 180200Z 18009KT 15SM SKC 16/02 A2948 RMK SLP988=
METAR CYPG 180100Z 19009KT 15SM FEW250 17/02 A2951 RMK CI2 SLP999=

TAF AMD CYPG 180310Z 1803/1812 22010G20KT P6SM BKN250
BECMG 1805/1807 23015G30KT
BECMG 1808/1810 23030G50KT
RMK NXT FCST BY 180600Z=

WINNIPEG/JAMES ARMSTRONG RICHARDSON INTL/MB    

METAR CYWG 180300Z 20013KT 12SM SKC 15/01 A2949 RMK HZ SLP991 DENSITY
ALT 1500FT=
METAR CYWG 180200Z 19009KT 10SM SKC 14/02 A2951 RMK HZ SLP999 DENSITY
ALT 1400FT=
METAR CYWG 180100Z 18010KT 10SM SKC 15/02 A2953 RMK FU SLP007 DENSITY
ALT 1500FT=

TAF CYWG 172338Z 1800/1824 20012G22KT P6SM SCT250
FM180400 22020G30KT P6SM BKN220
BECMG 1810/1812 27025G40KT
FM181400 27030G40KT P6SM FEW120
BECMG 1820/1822 27020G30KT
RMK NXT FCST BY 180600Z=


Your time UTC time
Weather data provided by Environment Canada and NAV CANADA